Cando, North Dakota
Current Conditions -  °F | °C
As of 2:35 AM on Thursday 18 Dec 2014 (Local Time) from K9D7 Reporting Station
Clear Clear  
Wind Chill: -14°   Ceiling: Unl
Heat Index:   Visibility: 10mi
Dew Point:   Wind: 9mph
Humidity: 92%   Direction: 120°ESE
Pressure: 30.2"   Gusts: NA
Location:  48.49°N, 99.21°W
Report Text: K9D7 180835Z AUTO 12008KT 10SM CLR M17/M18 A3020 RMK AO2
Loading
Personal Weather Stations






























Interactive Weather Map New forecast layout! Learn more

10-Day Weather Forecast

Advertisements
Track Severe Weather on mobile